Terminal Aerodrome Forecast
Issued by NWS Melbourne, FL

Home | Current Version | Previous Version | Text Only | Print | Product List | Glossary On
Versions: 1 2 3 4 5 6 7 8 9 10 11 12 13 14 15 16 17 18 19 20 21 22 23 24 25 26 27 28
000
FTUS42 KMLB 220300 AAA
TAFMCO
TAF AMD
KMCO 220310Z 2203/2224 00000KT P6SM SCT060 BKN250
     FM221500 11005KT P6SM SCT025 BKN250
     FM221800 13006KT P6SM SCT035 SCT100 BKN250 PROB30 2220/2223 3SM
      TSRA BKN025CB=

USA.gov is the U.S. government's official web portal to all federal, state and local government web resources and services.